createdAt,value
2022-10-09T00:06:52.060Z,41.58
2022-10-09T00:16:57.802Z,41.40
2022-10-09T00:26:59.444Z,39.03
2022-10-09T00:37:01.411Z,42.58
2022-10-09T00:47:04.051Z,38.20
2022-10-09T00:57:05.847Z,40.47
2022-10-09T01:07:15.069Z,38.10
2022-10-09T01:17:42.440Z,41.22
2022-10-09T01:27:44.560Z,42.05
2022-10-09T01:37:47.626Z,41.60
2022-10-09T01:47:49.399Z,42.40
2022-10-09T01:58:00.028Z,38.95
2022-10-09T02:08:04.569Z,42.28
2022-10-09T02:18:12.182Z,38.28
2022-10-09T02:28:16.999Z,44.30
2022-10-09T02:38:18.599Z,42.47
2022-10-09T02:48:21.877Z,47.15
2022-10-09T03:08:27.390Z,48.65
2022-10-09T03:18:28.983Z,44.97
2022-10-09T03:28:30.919Z,51.95
2022-10-09T03:38:32.696Z,53.33
2022-10-09T03:48:37.206Z,55.40
2022-10-09T03:58:38.828Z,60.80
2022-10-09T04:08:43.358Z,59.67
2022-10-09T04:18:45.553Z,58.85
2022-10-09T04:28:47.259Z,54.97
2022-10-09T04:38:48.928Z,57.38
2022-10-09T04:48:50.658Z,63.50
2022-10-09T04:58:52.271Z,64.28
2022-10-09T05:08:54.984Z,63.30
2022-10-09T05:18:58.304Z,55.97
2022-10-09T05:28:59.980Z,67.50
2022-10-09T05:39:01.650Z,49.83
2022-10-09T05:49:05.712Z,48.53
2022-10-09T05:59:10.120Z,48.40
2022-10-09T06:09:11.890Z,45.67
2022-10-09T06:19:15.896Z,47.53
2022-10-09T06:29:17.460Z,42.80
2022-10-09T06:39:19.410Z,43.80
2022-10-09T06:49:21.055Z,42.93
2022-10-09T06:59:23.959Z,37.30
2022-10-09T07:09:25.620Z,30.70
2022-10-09T07:19:28.296Z,29.13
2022-10-09T07:39:31.643Z,23.10
2022-10-09T07:49:33.370Z,20.60
2022-10-09T07:59:34.998Z,24.07
2022-10-09T08:09:41.729Z,16.77
2022-10-09T08:19:44.569Z,16.65
2022-10-09T08:29:47.678Z,10.63
2022-10-09T08:39:50.514Z,13.90
2022-10-09T08:49:58.860Z,9.77
2022-10-09T09:00:01.508Z,8.85
2022-10-09T09:10:18.148Z,13.38
2022-10-09T09:20:40.280Z,14.48
2022-10-09T09:30:50.066Z,11.35
2022-10-09T09:40:53.593Z,10.00
2022-10-09T09:51:16.078Z,11.75
2022-10-09T10:01:26.575Z,14.05
2022-10-09T10:11:29.478Z,10.52
2022-10-09T10:21:40.303Z,9.48
2022-10-09T10:31:51.242Z,8.80
2022-10-09T10:42:00.240Z,12.63
2022-10-09T10:52:07.941Z,11.63
2022-10-09T11:02:32.823Z,17.65
2022-10-09T11:13:15.781Z,8.38
2022-10-09T11:23:54.478Z,16.25
2022-10-09T11:34:04.124Z,8.57
2022-10-09T11:44:14.944Z,12.90
2022-10-09T11:54:18.916Z,12.35
2022-10-09T12:04:32.343Z,9.43
2022-10-09T12:14:48.411Z,14.18
2022-10-09T12:25:03.576Z,13.00
2022-10-09T12:35:17.720Z,13.20
2022-10-09T12:45:22.674Z,8.65
2022-10-09T12:55:28.128Z,10.77
2022-10-09T13:05:43.572Z,10.73
2022-10-09T13:15:59.573Z,10.90
2022-10-09T13:26:05.902Z,15.23
2022-10-09T13:36:20.488Z,22.75
2022-10-09T13:46:24.313Z,10.75
2022-10-09T13:56:28.378Z,16.58
2022-10-09T14:06:36.156Z,14.38
2022-10-09T14:16:39.218Z,12.70
2022-10-09T14:26:41.944Z,7.57
2022-10-09T14:36:44.361Z,13.70
2022-10-09T14:46:48.106Z,16.27
2022-10-09T14:56:51.733Z,16.05
2022-10-09T15:07:01.133Z,12.88
2022-10-09T15:17:03.314Z,21.70
2022-10-09T15:27:08.136Z,12.95
2022-10-09T15:37:09.949Z,17.20
2022-10-09T15:57:18.866Z,19.15
2022-10-09T16:07:20.471Z,17.67
2022-10-09T16:17:23.116Z,13.93
2022-10-09T16:27:24.775Z,15.43
2022-10-09T16:37:28.499Z,11.83
2022-10-09T16:47:30.365Z,13.02
2022-10-09T16:57:32.935Z,12.40
2022-10-09T17:17:38.553Z,10.93
2022-10-09T17:27:40.495Z,13.20
2022-10-09T17:37:44.756Z,12.07
2022-10-09T17:47:46.515Z,12.15
2022-10-09T17:57:48.780Z,12.40
2022-10-09T18:07:51.016Z,11.38
2022-10-09T18:17:55.305Z,10.70
2022-10-09T18:27:57.091Z,11.90
2022-10-09T18:37:59.517Z,11.30
2022-10-09T18:48:02.202Z,6.60
2022-10-09T18:58:06.158Z,8.95
2022-10-09T19:08:07.941Z,8.43
2022-10-09T19:18:09.573Z,9.80
2022-10-09T19:28:11.460Z,20.58
2022-10-09T19:38:14.163Z,14.57
2022-10-09T19:48:17.800Z,10.25
2022-10-09T19:58:19.697Z,9.82
2022-10-09T20:08:27.483Z,16.25
2022-10-09T20:18:31.589Z,9.38
2022-10-09T20:28:36.742Z,9.68
2022-10-09T20:38:38.590Z,8.00
2022-10-09T20:48:42.928Z,7.28
2022-10-09T20:58:44.778Z,7.03
2022-10-09T21:08:47.026Z,10.77
2022-10-09T21:18:58.020Z,13.97
2022-10-09T21:29:00.669Z,11.40
2022-10-09T21:39:06.859Z,6.67
2022-10-09T21:49:21.240Z,9.45
2022-10-09T21:59:29.286Z,9.32
2022-10-09T22:09:31.033Z,6.03
2022-10-09T22:19:32.949Z,5.22
2022-10-09T22:29:38.344Z,7.38
2022-10-09T22:39:40.277Z,7.72
2022-10-09T22:49:42.252Z,5.32
2022-10-09T22:59:44.011Z,7.72
2022-10-09T23:09:45.625Z,5.82
2022-10-09T23:19:48.109Z,5.10
2022-10-09T23:29:49.814Z,5.53
2022-10-09T23:39:52.463Z,7.18
2022-10-09T23:49:56.666Z,6.63
2022-10-09T23:59:59.307Z,4.95
